createdAt,value
2019-06-15T00:00:37.680Z,17.29
2019-06-15T00:03:41.547Z,17.28
2019-06-15T00:06:45.405Z,17.23
2019-06-15T00:09:49.571Z,17.22
2019-06-15T00:12:53.506Z,17.17
2019-06-15T00:15:57.382Z,17.11
2019-06-15T00:19:01.230Z,17.18
2019-06-15T00:22:05.160Z,17.11
2019-06-15T00:25:09.182Z,17.11
2019-06-15T00:28:13.017Z,17.11
2019-06-15T00:31:16.901Z,17.03
2019-06-15T00:34:20.727Z,16.99
2019-06-15T00:37:24.627Z,16.94
2019-06-15T00:40:28.534Z,16.93
2019-06-15T00:43:32.473Z,16.95
2019-06-15T00:46:36.366Z,17.03
2019-06-15T00:49:40.342Z,17.06
2019-06-15T00:52:44.346Z,17.10
2019-06-15T00:55:48.183Z,17.13
2019-06-15T00:58:52.131Z,17.03
2019-06-15T01:01:56.016Z,16.93
2019-06-15T01:04:59.850Z,17.00
2019-06-15T01:08:03.681Z,17.01
2019-06-15T01:11:07.626Z,17.03
2019-06-15T01:14:11.445Z,17.02
2019-06-15T01:17:15.391Z,16.98
2019-06-15T01:20:19.382Z,16.99
2019-06-15T01:23:23.219Z,16.98
2019-06-15T01:26:27.045Z,17.03
2019-06-15T01:29:30.869Z,16.95
2019-06-15T01:32:34.739Z,16.96
2019-06-15T01:35:38.561Z,16.96
2019-06-15T01:38:42.400Z,16.90
2019-06-15T01:41:46.268Z,16.84
2019-06-15T01:44:50.142Z,16.93
2019-06-15T01:47:54.076Z,16.96
2019-06-15T01:50:57.910Z,16.94
2019-06-15T01:54:01.846Z,17.24
2019-06-15T01:57:05.856Z,17.15
2019-06-15T02:00:11.752Z,17.17
2019-06-15T02:03:15.566Z,17.24
2019-06-15T02:06:19.420Z,17.20
2019-06-15T02:09:23.241Z,17.29
2019-06-15T02:12:27.102Z,17.36
2019-06-15T02:15:31.301Z,17.21
2019-06-15T02:18:36.690Z,17.25
2019-06-15T02:21:40.463Z,17.27
2019-06-15T02:24:44.326Z,17.16
2019-06-15T02:27:48.141Z,17.08
2019-06-15T02:30:51.998Z,17.12
2019-06-15T02:33:55.841Z,17.03
2019-06-15T02:36:59.782Z,17.08
2019-06-15T02:40:04.109Z,17.27
2019-06-15T02:43:08.074Z,17.28
2019-06-15T02:46:12.089Z,17.37
2019-06-15T02:49:16.073Z,17.17
2019-06-15T02:52:20.014Z,17.16
2019-06-15T02:55:24.017Z,17.16
2019-06-15T02:58:27.945Z,17.06
2019-06-15T03:01:31.929Z,17.24
2019-06-15T03:04:35.796Z,17.35
2019-06-15T03:07:39.695Z,17.30
2019-06-15T03:10:44.323Z,17.33
2019-06-15T03:13:48.291Z,17.36
2019-06-15T03:16:52.145Z,17.42
2019-06-15T03:19:56.023Z,17.39
2019-06-15T03:22:59.874Z,17.42
2019-06-15T03:26:05.763Z,17.33
2019-06-15T03:29:09.505Z,17.24
2019-06-15T03:32:13.355Z,17.20
2019-06-15T03:35:17.959Z,17.05
2019-06-15T03:38:21.851Z,17.16
2019-06-15T03:41:25.675Z,17.03
2019-06-15T03:44:29.573Z,17.02
2019-06-15T03:47:33.417Z,17.27
2019-06-15T03:50:37.338Z,17.28
2019-06-15T03:53:41.169Z,17.13
2019-06-15T03:56:45.028Z,17.15
2019-06-15T03:59:48.871Z,17.28
2019-06-15T04:02:52.697Z,17.15
2019-06-15T04:05:56.615Z,17.32
2019-06-15T04:09:00.520Z,17.13
2019-06-15T04:12:04.574Z,17.19
2019-06-15T04:15:08.625Z,17.10
2019-06-15T04:18:12.487Z,17.18
2019-06-15T04:21:16.346Z,17.12
2019-06-15T04:24:20.183Z,17.08
2019-06-15T04:27:24.109Z,17.09
2019-06-15T04:30:28.032Z,17.16
2019-06-15T04:33:31.945Z,17.31
2019-06-15T04:36:35.805Z,17.19
2019-06-15T04:39:39.679Z,17.24
2019-06-15T04:42:43.530Z,17.18
2019-06-15T04:45:47.435Z,17.43
2019-06-15T04:48:51.260Z,17.53
2019-06-15T04:51:55.102Z,17.35
2019-06-15T04:54:58.954Z,17.36
2019-06-15T04:58:02.890Z,17.48
2019-06-15T05:01:06.796Z,17.38
2019-06-15T05:04:10.650Z,17.53
2019-06-15T05:07:14.526Z,17.38
2019-06-15T05:10:18.508Z,17.53
2019-06-15T05:13:22.436Z,17.47
2019-06-15T05:16:26.358Z,17.36
2019-06-15T05:19:30.258Z,17.31
2019-06-15T05:22:34.273Z,17.32
2019-06-15T05:25:38.119Z,17.29
2019-06-15T05:28:41.978Z,17.27
2019-06-15T05:31:45.805Z,17.43
2019-06-15T05:34:49.795Z,17.60
2019-06-15T05:37:53.757Z,17.45
2019-06-15T05:40:57.580Z,17.49
2019-06-15T05:44:01.448Z,17.33
2019-06-15T05:47:05.529Z,17.28
2019-06-15T05:50:09.465Z,17.30
2019-06-15T05:53:13.382Z,17.44
2019-06-15T05:56:17.242Z,17.59
2019-06-15T05:59:21.084Z,17.64
2019-06-15T06:02:25.024Z,17.62
2019-06-15T06:05:28.874Z,17.61
2019-06-15T06:08:32.815Z,17.59
2019-06-15T06:11:36.727Z,17.60
2019-06-15T06:14:40.547Z,17.64
2019-06-15T06:17:44.474Z,17.75
2019-06-15T06:20:48.292Z,17.63
2019-06-15T06:23:52.184Z,17.63
2019-06-15T06:26:56.048Z,17.72
2019-06-15T06:29:59.936Z,17.84
2019-06-15T06:33:03.907Z,17.86
2019-06-15T06:36:07.753Z,17.80
2019-06-15T06:39:11.603Z,17.73
2019-06-15T06:42:15.428Z,17.75
2019-06-15T06:45:20.023Z,17.80
2019-06-15T06:48:23.865Z,17.85
2019-06-15T06:51:27.707Z,17.79
2019-06-15T06:54:31.513Z,17.86
2019-06-15T06:57:35.523Z,18.08
2019-06-15T07:00:39.320Z,18.08
2019-06-15T07:03:43.138Z,17.97
2019-06-15T07:06:46.960Z,17.93
2019-06-15T07:09:50.786Z,18.01
2019-06-15T07:12:54.665Z,17.94
2019-06-15T07:15:58.577Z,17.98
2019-06-15T07:19:02.411Z,17.93
2019-06-15T07:22:06.234Z,18.09
2019-06-15T07:25:10.310Z,18.29
2019-06-15T07:28:14.201Z,18.19
2019-06-15T07:31:18.148Z,18.22
2019-06-15T07:34:21.983Z,18.01
2019-06-15T07:37:25.997Z,18.07
2019-06-15T07:40:30.012Z,18.13
2019-06-15T07:43:33.871Z,18.04
2019-06-15T07:46:37.856Z,18.12
2019-06-15T07:49:41.698Z,18.20
2019-06-15T07:52:45.521Z,18.14
2019-06-15T07:55:49.510Z,18.10
2019-06-15T07:58:53.357Z,18.28
2019-06-15T08:01:57.320Z,18.31
2019-06-15T08:05:01.153Z,18.32
2019-06-15T08:08:05.150Z,18.24
2019-06-15T08:11:09.039Z,18.23
2019-06-15T08:14:12.952Z,18.19
2019-06-15T08:17:16.963Z,18.23
2019-06-15T08:20:24.883Z,18.04
2019-06-15T08:23:28.688Z,18.19
2019-06-15T08:26:32.596Z,18.38
2019-06-15T08:29:36.453Z,18.33
2019-06-15T08:32:40.346Z,18.52
2019-06-15T08:35:44.176Z,18.53
2019-06-15T08:38:48.074Z,18.68
2019-06-15T08:41:51.897Z,18.70
2019-06-15T08:44:55.823Z,18.68
2019-06-15T08:47:59.671Z,18.51
2019-06-15T08:51:03.509Z,18.60
2019-06-15T08:54:07.329Z,18.60
2019-06-15T08:57:11.140Z,18.77
2019-06-15T09:00:15.431Z,18.88
2019-06-15T09:03:19.258Z,18.94
2019-06-15T09:06:23.094Z,18.87
2019-06-15T09:09:26.977Z,19.15
2019-06-15T09:12:30.849Z,19.13
2019-06-15T09:16:00.317Z,19.01
2019-06-15T09:19:04.208Z,19.25
2019-06-15T09:22:08.145Z,19.30
2019-06-15T09:25:12.115Z,19.32
2019-06-15T09:28:15.964Z,19.35
2019-06-15T09:31:19.799Z,19.41
2019-06-15T09:34:23.648Z,19.39
2019-06-15T09:37:27.546Z,19.45
2019-06-15T09:40:31.524Z,19.49
2019-06-15T09:43:35.355Z,19.44
2019-06-15T09:46:39.182Z,19.41
2019-06-15T09:49:43.019Z,19.50
2019-06-15T09:52:46.832Z,19.62
2019-06-15T09:55:50.663Z,19.49
2019-06-15T09:58:54.525Z,19.52
2019-06-15T10:01:58.380Z,19.61
2019-06-15T10:05:02.212Z,19.83
2019-06-15T10:08:06.199Z,19.72
2019-06-15T10:11:10.093Z,19.66
2019-06-15T10:14:13.935Z,19.64
2019-06-15T10:17:17.930Z,19.42
2019-06-15T10:20:21.908Z,19.34
2019-06-15T10:23:25.709Z,19.25
2019-06-15T10:26:29.562Z,19.19
2019-06-15T10:29:41.939Z,19.09
2019-06-15T10:32:39.255Z,19.19
2019-06-15T10:35:43.085Z,19.16
2019-06-15T10:38:46.927Z,19.12
2019-06-15T10:41:50.758Z,19.07
2019-06-15T10:44:54.597Z,18.74
2019-06-15T10:47:58.393Z,18.55
2019-06-15T10:51:02.455Z,18.49
2019-06-15T10:54:06.379Z,18.43
2019-06-15T10:57:10.176Z,18.35
2019-06-15T11:00:14.583Z,18.25
2019-06-15T11:03:18.555Z,18.19
2019-06-15T11:06:22.411Z,18.18
2019-06-15T11:09:26.319Z,18.06
2019-06-15T11:12:45.107Z,18.00
2019-06-15T11:15:36.409Z,18.03
2019-06-15T11:18:40.317Z,18.22
2019-06-15T11:21:44.151Z,18.11
2019-06-15T11:24:47.992Z,18.12
2019-06-15T11:27:51.851Z,18.21
2019-06-15T11:30:55.659Z,18.19
2019-06-15T11:33:59.505Z,18.06
2019-06-15T11:37:03.336Z,17.94
2019-06-15T11:40:07.710Z,17.78
2019-06-15T11:43:11.631Z,17.77
2019-06-15T11:46:15.447Z,17.64
2019-06-15T11:49:19.342Z,17.61
2019-06-15T11:52:23.244Z,17.60
2019-06-15T11:55:39.090Z,17.59
2019-06-15T11:58:32.639Z,17.65
2019-06-15T12:01:36.568Z,17.77
2019-06-15T12:04:40.432Z,17.92
2019-06-15T12:07:44.307Z,18.03
2019-06-15T12:10:48.267Z,18.09
2019-06-15T12:13:52.093Z,18.07
2019-06-15T12:16:55.994Z,17.99
2019-06-15T12:19:59.795Z,18.01
2019-06-15T12:23:03.640Z,17.97
2019-06-15T12:26:07.595Z,18.04
2019-06-15T12:29:11.515Z,18.13
2019-06-15T12:32:15.362Z,18.19
2019-06-15T12:35:19.249Z,18.21
2019-06-15T12:38:23.081Z,18.22
2019-06-15T12:41:26.993Z,18.13
2019-06-15T12:44:30.869Z,18.17
2019-06-15T12:47:34.753Z,18.16
2019-06-15T12:50:38.574Z,18.21
2019-06-15T12:53:42.399Z,18.27
2019-06-15T12:56:46.191Z,18.35
2019-06-15T12:59:50.115Z,18.03
2019-06-15T13:02:53.922Z,17.93
2019-06-15T13:05:57.756Z,17.88
2019-06-15T13:09:01.668Z,17.84
2019-06-15T13:12:05.658Z,17.65
2019-06-15T13:15:09.681Z,17.64
2019-06-15T13:18:13.593Z,17.61
2019-06-15T13:21:17.509Z,17.51
2019-06-15T13:24:21.401Z,17.39
2019-06-15T13:27:25.318Z,17.28
2019-06-15T13:30:29.215Z,17.28
2019-06-15T13:33:33.033Z,17.32
2019-06-15T13:36:36.837Z,17.22
2019-06-15T13:39:40.783Z,17.09
2019-06-15T13:42:44.686Z,17.01
2019-06-15T13:45:48.580Z,16.99
2019-06-15T13:48:52.465Z,16.95
2019-06-15T13:51:56.282Z,16.91
2019-06-15T13:55:00.085Z,16.88
2019-06-15T13:58:03.976Z,16.69
2019-06-15T14:01:07.820Z,16.62
2019-06-15T14:04:11.639Z,16.59
2019-06-15T14:07:15.487Z,16.54
2019-06-15T14:10:19.499Z,16.51
2019-06-15T14:13:23.376Z,16.45
2019-06-15T14:16:27.189Z,16.42
2019-06-15T14:19:31.044Z,16.44
2019-06-15T14:22:34.870Z,16.45
2019-06-15T14:25:38.715Z,16.40
2019-06-15T14:28:42.680Z,16.35
2019-06-15T14:31:50.068Z,16.31
2019-06-15T14:34:52.070Z,16.36
2019-06-15T14:37:56.025Z,16.43
2019-06-15T14:40:59.899Z,16.42
2019-06-15T14:44:03.857Z,16.47
2019-06-15T14:47:07.759Z,16.52
2019-06-15T14:50:11.742Z,16.59
2019-06-15T14:53:15.550Z,16.62
2019-06-15T14:56:19.508Z,16.67
2019-06-15T14:59:23.406Z,16.77
2019-06-15T15:02:27.215Z,16.80
2019-06-15T15:05:31.030Z,16.73
2019-06-15T15:08:36.732Z,16.81
2019-06-15T15:11:40.408Z,16.94
2019-06-15T15:14:46.781Z,16.97
2019-06-15T15:17:49.936Z,16.99
2019-06-15T15:20:56.324Z,17.10
2019-06-15T15:23:59.396Z,17.18
2019-06-15T15:27:03.256Z,17.19
2019-06-15T15:30:09.015Z,17.31
2019-06-15T15:33:12.836Z,17.34
2019-06-15T15:36:17.050Z,17.35
2019-06-15T15:39:20.968Z,17.43
2019-06-15T15:42:26.618Z,17.48
2019-06-15T15:45:30.403Z,17.51
2019-06-15T15:48:36.324Z,17.55
2019-06-15T15:51:39.845Z,17.63
2019-06-15T15:54:43.681Z,17.67
2019-06-15T15:57:47.516Z,17.78
2019-06-15T16:00:51.342Z,17.91
2019-06-15T16:03:56.270Z,18.02
2019-06-15T16:07:00.280Z,18.23
2019-06-15T16:10:06.248Z,18.90
2019-06-15T16:13:10.187Z,19.42
2019-06-15T16:16:16.201Z,19.37
2019-06-15T16:19:19.629Z,19.47
2019-06-15T16:22:23.431Z,19.51
2019-06-15T16:25:27.283Z,19.54
2019-06-15T16:28:31.146Z,19.43
2019-06-15T16:31:37.231Z,19.27
2019-06-15T16:34:40.564Z,19.56
2019-06-15T16:37:44.429Z,19.42
2019-06-15T16:40:48.383Z,19.77
2019-06-15T16:43:52.197Z,19.94
2019-06-15T16:46:56.674Z,20.02
2019-06-15T16:50:00.508Z,20.00
2019-06-15T16:53:04.510Z,19.81
2019-06-15T16:56:08.424Z,19.76
2019-06-15T16:59:12.453Z,19.79
2019-06-15T17:02:17.138Z,20.04
2019-06-15T17:05:21.332Z,19.89
2019-06-15T17:08:25.247Z,19.89
2019-06-15T17:11:29.077Z,20.02
2019-06-15T17:14:32.910Z,19.96
2019-06-15T17:17:37.022Z,19.85
2019-06-15T17:20:50.982Z,19.75
2019-06-15T17:23:57.061Z,20.04
2019-06-15T17:27:00.507Z,20.15
2019-06-15T17:30:07.058Z,20.20
2019-06-15T17:33:10.790Z,20.14
2019-06-15T17:36:14.618Z,20.09
2019-06-15T17:39:18.576Z,19.97
2019-06-15T17:42:22.480Z,19.88
2019-06-15T17:45:26.742Z,19.81
2019-06-15T17:48:30.687Z,19.59
2019-06-15T17:51:36.813Z,19.40
2019-06-15T17:54:40.130Z,19.29
2019-06-15T17:57:46.383Z,19.26
2019-06-15T18:00:49.647Z,19.22
2019-06-15T18:03:55.394Z,19.19
2019-06-15T18:06:59.007Z,19.16
2019-06-15T18:10:02.925Z,19.09
2019-06-15T18:13:07.129Z,18.96
2019-06-15T18:16:11.007Z,18.85
2019-06-15T18:19:17.102Z,18.77
2019-06-15T18:22:20.399Z,18.88
2019-06-15T18:25:26.542Z,18.94
2019-06-15T18:28:29.946Z,18.83
2019-06-15T18:31:36.303Z,18.64
2019-06-15T18:34:39.373Z,18.57
2019-06-15T18:37:43.284Z,18.56
2019-06-15T18:40:47.082Z,18.51
2019-06-15T18:43:50.895Z,18.31
2019-06-15T18:46:56.378Z,18.35
2019-06-15T18:50:00.335Z,18.23
2019-06-15T18:53:07.108Z,18.19
2019-06-15T18:56:11.268Z,18.07
2019-06-15T18:59:16.868Z,17.95
2019-06-15T19:02:20.943Z,17.94
2019-06-15T19:05:26.074Z,17.97
2019-06-15T19:08:30.094Z,17.98
2019-06-15T19:11:33.912Z,17.88
2019-06-15T19:14:37.741Z,17.76
2019-06-15T19:17:41.631Z,17.69
2019-06-15T19:20:45.620Z,17.58
2019-06-15T19:23:49.437Z,17.51
2019-06-15T19:26:53.275Z,17.57
2019-06-15T19:29:57.095Z,17.46
2019-06-15T19:33:00.920Z,17.30
2019-06-15T19:36:06.326Z,17.28
2019-06-15T19:39:10.286Z,17.18
2019-06-15T19:42:14.139Z,17.04
2019-06-15T19:45:20.809Z,17.04
2019-06-15T19:48:26.799Z,17.01
2019-06-15T19:51:30.262Z,16.88
2019-06-15T19:54:36.423Z,16.84
2019-06-15T19:57:39.672Z,16.72
2019-06-15T20:00:43.507Z,16.82
2019-06-15T20:03:47.343Z,16.89
2019-06-15T20:06:51.183Z,16.64
2019-06-15T20:09:57.031Z,16.67
2019-06-15T20:13:00.577Z,16.64
2019-06-15T20:16:05.287Z,16.61
2019-06-15T20:19:10.627Z,16.39
2019-06-15T20:22:14.439Z,16.35
2019-06-15T20:25:18.441Z,16.35
2019-06-15T20:28:22.319Z,16.32
2019-06-15T20:31:26.167Z,16.17
2019-06-15T20:34:29.987Z,16.25
2019-06-15T20:37:33.802Z,16.22
2019-06-15T20:40:37.698Z,16.15
2019-06-15T20:43:41.516Z,16.13
2019-06-15T20:46:46.440Z,16.13
2019-06-15T20:49:50.452Z,16.17
2019-06-15T20:52:56.446Z,16.09
2019-06-15T20:55:59.803Z,16.02
2019-06-15T20:59:06.138Z,16.14
2019-06-15T21:02:09.254Z,16.17
2019-06-15T21:05:33.023Z,16.22
2019-06-15T21:08:20.244Z,16.08
2019-06-15T21:11:26.393Z,16.08
2019-06-15T21:14:29.614Z,15.88
2019-06-15T21:17:33.416Z,15.91
2019-06-15T21:20:37.309Z,16.07
2019-06-15T21:23:41.149Z,16.10
2019-06-15T21:26:45.000Z,15.99
2019-06-15T21:29:48.816Z,15.86
2019-06-15T21:32:52.641Z,16.00
2019-06-15T21:35:56.784Z,15.84
2019-06-15T21:39:00.836Z,15.84
2019-06-15T21:42:04.768Z,15.96
2019-06-15T21:45:09.281Z,15.93
2019-06-15T21:48:13.079Z,16.01
2019-06-15T21:51:16.917Z,15.98
2019-06-15T21:54:20.822Z,16.02
2019-06-15T21:57:26.877Z,16.10
2019-06-15T22:00:42.825Z,16.01
2019-06-15T22:03:46.756Z,15.98
2019-06-15T22:06:50.644Z,16.05
2019-06-15T22:09:54.505Z,15.97
2019-06-15T22:12:58.451Z,15.96
2019-06-15T22:16:02.365Z,15.80
2019-06-15T22:19:06.323Z,15.75
2019-06-15T22:22:10.130Z,15.88
2019-06-15T22:25:15.961Z,15.76
2019-06-15T22:28:19.670Z,15.74
2019-06-15T22:31:23.481Z,15.88
2019-06-15T22:34:27.449Z,15.76
2019-06-15T22:37:31.293Z,15.64
2019-06-15T22:40:36.340Z,15.72
2019-06-15T22:43:40.439Z,15.74
2019-06-15T22:46:46.483Z,15.80
2019-06-15T22:49:49.827Z,15.70
2019-06-15T22:52:53.633Z,15.73
2019-06-15T22:55:57.464Z,15.66
2019-06-15T22:59:01.287Z,15.78
2019-06-15T23:02:07.071Z,15.66
2019-06-15T23:05:10.877Z,15.67
2019-06-15T23:08:16.285Z,15.70
2019-06-15T23:11:20.311Z,15.56
2019-06-15T23:14:26.056Z,15.71
2019-06-15T23:17:29.672Z,15.67
2019-06-15T23:20:33.566Z,15.77
2019-06-15T23:23:37.406Z,15.54
2019-06-15T23:26:41.235Z,15.53
2019-06-15T23:29:46.337Z,15.50
2019-06-15T23:32:50.235Z,15.60
2019-06-15T23:35:59.465Z,15.67
2019-06-15T23:39:05.424Z,15.53
2019-06-15T23:42:08.985Z,15.43
2019-06-15T23:45:15.991Z,15.37
2019-06-15T23:48:19.381Z,15.44
2019-06-15T23:51:23.220Z,15.26
2019-06-15T23:54:27.903Z,15.10
2019-06-15T23:57:31.930Z,15.05
